Dalhem, Belgium
Current Conditions -  °F | °C
As of 1:20 PM on Saturday 25 Oct 2014 (Local Time) from EBLG Reporting Station
Broken Clouds Broken Clouds  
Wind Chill: 55°   Ceiling: 800
Heat Index: 55°   Visibility: 6mi
Dew Point: 54°   Wind: 7mph
Humidity: 94%   Direction: 210°SSW
Pressure: 30.09"   Gusts: NA
Location:  50.71°N, 5.73°E
Report Text: EBLG 251120Z 21006KT 9000 SCT007 BKN008 13/12 Q1019 TEMPO 3000 -DZ BKN005
Loading
Personal Weather Stations






























Interactive Weather Map
Tropical Storm Tracking
New forecast layout! Learn more

10-Day Weather Forecast

Advertisements
Track Severe Weather on mobile